ADDS METAR Data INFO
IDs: Format: Raw Decoded Include TAF

Data at: 1524 UTC 18 Jun 2018

KOSC 181515Z AUTO 28009KT 10SM -RA SCT035 SCT050 BKN085 26/20 A2987 RMK AO2 T02570199
KOSC 181455Z AUTO 27008KT 10SM SCT026 26/20 A2988 RMK AO2 T02600199
KOSC 181436Z AUTO 26009KT 10SM BKN026 26/20 A2988 RMK AO2 T02610198
KOSC 181415Z AUTO 27009KT 10SM OVC028 26/20 A2987 RMK AO2 T02620197
KOSC 181355Z AUTO 27011G16KT 10SM SCT026 27/20 A2987 RMK AO2 T02660198
KOSC 181336Z AUTO 28010G16KT 10SM CLR 27/20 A2987 RMK AO2 T02710200
KOSC 181315Z AUTO 26012KT 10SM CLR 27/20 A2987 RMK AO2 T02670202
KOSC 181255Z AUTO 27011G14KT 10SM CLR 26/20 A2986 RMK AO2 T02570201
KOSC 181235Z AUTO 26009KT 10SM CLR 26/20 A2986 RMK AO2 T02570201
KOSC 181215Z AUTO 26011KT 10SM BKN120 25/20 A2986 RMK AO2 T02540200
KOSC 181155Z AUTO 25009KT 10SM BKN120 25/20 A2986 RMK AO2 T02520200 10277 20242
KOSC 181135Z AUTO 26008KT 10SM SCT110 25/20 A2987 RMK AO2 T02520200
KOSC 181115Z AUTO 23005KT 10SM SCT120 25/20 A2985 RMK AO2 T02500202
KOSC 181055Z AUTO 22006KT 10SM CLR 25/20 A2985 RMK AO2 T02480202
KOSC 181035Z AUTO 22006KT 10SM SCT120 25/21 A2985 RMK AO2 T02450205
KOSC 181015Z AUTO 24006KT 10SM CLR 25/20 A2985 RMK AO2 T02470201
KOSC 180955Z AUTO 22006KT 10SM CLR 25/20 A2985 RMK AO2 T02470200
KOSC 180935Z AUTO 21007KT 10SM CLR 25/20 A2985 RMK AO2 T02500201
KOSC 180915Z AUTO 21007KT 10SM CLR 25/20 A2985 RMK AO2 T02530201
KOSC 180855Z AUTO 21005KT 10SM CLR 25/20 A2985 RMK AO2 T02520201
KOSC 180835Z AUTO 22006KT 10SM CLR 26/20 A2985 RMK AO2 T02550200
KOSC 180815Z AUTO 21005KT 10SM CLR 26/20 A2985 RMK AO2 T02570200
KOSC 180755Z AUTO 23005KT 10SM CLR 25/20 A2985 RMK AO2 T02510199
KOSC 180735Z AUTO 24005KT 10SM CLR 26/20 A2985 RMK AO2 T02590198
KOSC 180715Z AUTO 26006KT 10SM CLR 27/20 A2986 RMK AO2 T02660198
KOSC 180655Z AUTO 26009KT 10SM CLR 27/20 A2986 RMK AO2 T02700198
KOSC 180635Z AUTO 26008KT 10SM CLR 27/20 A2987 RMK AO2 T02720197
KOSC 180615Z AUTO 25009G14KT 10SM CLR 28/20 A2986 RMK AO2 T02760196
KOSC 180555Z AUTO 24009KT 10SM CLR 28/20 A2987 RMK AO2 T02770196 10328 20275
KOSC 180535Z AUTO 24011KT 10SM CLR 28/20 A2988 RMK AO2 T02770195
KOSC 180515Z AUTO 23010KT 10SM CLR 28/20 A2988 RMK AO2 T02770196
KOSC 180455Z AUTO 22008KT 10SM CLR 28/20 A2988 RMK AO2 T02760197
KOSC 180435Z AUTO 22008KT 10SM CLR 28/20 A2988 RMK AO2 T02770197
KOSC 180415Z AUTO 23009KT 10SM CLR 28/19 A2989 RMK AO2 T02810194
KOSC 180355Z AUTO 23010KT 10SM CLR 28/19 A2989 RMK AO2 T02830191
KOSC 180335Z AUTO 23009KT 10SM CLR 28/19 A2989 RMK AO2 T02830192
KOSC 180315Z AUTO 24008KT 10SM CLR 29/19 A2989 RMK AO2 T02850192
KOSC 180255Z AUTO 23010KT 10SM CLR 29/19 A2989 RMK AO2 T02900192
KOSC 180235Z AUTO 23008KT 10SM CLR 29/19 A2990 RMK AO2 T02900193
KOSC 180215Z AUTO 23009KT 10SM CLR 29/19 A2989 RMK AO2 T02920192
KOSC 180155Z AUTO 23008KT 10SM CLR 30/19 A2989 RMK AO2 T02970192
KOSC 180135Z AUTO 23010KT 10SM CLR 30/19 A2988 RMK AO2 T03000191
KOSC 180115Z AUTO 23010KT 10SM CLR 31/19 A2988 RMK AO2 T03060190
KOSC 180055Z AUTO 23011G15KT 10SM CLR 31/19 A2987 RMK AO2 T03110188
KOSC 180035Z AUTO 23011KT 10SM SCT055 32/19 A2987 RMK AO2 T03200188
KOSC 180015Z AUTO 23012G18KT 10SM SCT055 32/19 A2987 RMK AO2 T03230187
KOSC 172355Z AUTO 22010G13KT 10SM BKN055 BKN070 33/19 A2986 RMK AO2 T03290190 10343 20321
KOSC 172335Z AUTO 22013G18KT 10SM BKN055 33/19 A2986 RMK AO2 T03320191
KOSC 172315Z AUTO 21014KT 10SM BKN060 34/19 A2985 RMK AO2 T03350189
KOSC 172255Z AUTO 22013KT 10SM BKN060 BKN070 34/19 A2986 RMK AO2 T03370186
KOSC 172235Z AUTO 22017G21KT 10SM BKN065 BKN095 33/19 A2987 RMK AO2 T03330187
KOSC 172215Z AUTO 21010KT 10SM BKN065 BKN085 BKN100 33/19 A2988 RMK AO2 T03250194
KOSC 172155Z AUTO 20011KT 10SM SCT065 BKN075 BKN100 33/19 A2988 RMK AO2 T03260192
KOSC 172135Z AUTO 20010G19KT 10SM SCT070 BKN090 33/19 A2989 RMK AO2 T03260190
KOSC 172115Z AUTO 21013G16KT 10SM SCT065 33/19 A2989 RMK AO2 T03290194
KOSC 172056Z AUTO 21013G21KT 10SM SCT065 SCT075 SCT120 34/20 A2989 RMK AO2 T03350199
KOSC 172035Z AUTO 19012G18KT 10SM SCT075 BKN085 BKN120 33/20 A2990 RMK AO2 T03290200
KOSC 172015Z AUTO 20016G20KT 10SM SCT060 SCT075 SCT085 33/20 A2990 RMK AO2 T03270198
KOSC 171956Z AUTO 19014G19KT 10SM CLR 34/20 A2990 RMK AO2 T03380201
KOSC 171935Z AUTO 20010G17KT 10SM CLR 34/20 A2991 RMK AO2 T03370201
KOSC 171915Z AUTO 20014G19KT 10SM CLR 34/20 A2992 RMK AO2 T03400201
KOSC 171856Z AUTO 20008G18KT 10SM CLR 33/21 A2993 RMK AO2 T03310212
KOSC 171835Z AUTO 20009G17KT 10SM CLR 33/21 A2993 RMK AO2 T03320212
KOSC 171815Z AUTO 21008KT 10SM CLR 33/21 A2994 RMK AO2 T03270211
KOSC 171756Z AUTO 21007KT 170V230 10SM CLR 32/21 A2995 RMK AO2 T03230208 10328 20209
KOSC 171735Z AUTO 19008KT 10SM CLR 32/21 A2995 RMK AO2 T03200211
KOSC 171715Z AUTO 19008KT 10SM CLR 33/21 A2995 RMK AO2 T03250209
KOSC 171655Z AUTO 20007KT 10SM CLR 32/21 A2996 RMK AO2 T03170209
KOSC 171635Z AUTO 20008KT 10SM CLR 32/21 A2996 RMK AO2 T03190210
KOSC 171615Z AUTO 20006KT 10SM CLR 31/21 A2997 RMK AO2 T03090207
KOSC 171555Z AUTO 22006KT 10SM CLR 31/21 A2998 RMK AO2 T03110211
KOSC 171535Z AUTO 21008KT 10SM CLR 30/21 A2998 RMK AO2 T02950208
KOSC 171515Z AUTO 21009KT 10SM CLR 29/20 A2997 RMK AO2 T02890204
KOSC 171455Z AUTO 20009KT 10SM CLR 29/20 A2997 RMK AO2 T02900203
KOSC 171435Z AUTO 21008KT 10SM CLR 28/20 A2998 RMK AO2 T02840203
KOSC 171415Z AUTO 21008KT 10SM CLR 27/20 A2998 RMK AO2 T02720201
KOSC 171355Z AUTO 22009KT 10SM CLR 26/21 A2999 RMK AO2 T02630205
KOSC 171335Z AUTO 22008KT 10SM CLR 25/21 A2999 RMK AO2 T02470205
KOSC 171315Z AUTO 22008KT 10SM CLR 23/21 A3000 RMK AO2 T02340207
KOSC 171255Z AUTO 21008KT 10SM CLR 23/21 A3000 RMK AO2 T02260208
KOSC 171235Z AUTO 22008KT 7SM CLR 22/21 A2999 RMK AO2 T02200207
KOSC 171215Z AUTO 22007KT 7SM SCT050 21/20 A2999 RMK AO2 T02130204
KOSC 171155Z AUTO 22006KT 5SM BR SCT050 21/20 A2999 RMK AO2 T02070200 10207 20177
KOSC 171135Z AUTO 22004KT 5SM BR CLR 20/20 A3000 RMK AO2 T02010196
KOSC 171115Z AUTO 23005KT 5SM BR CLR 20/19 A3000 RMK AO2 T01960192
KOSC 171055Z AUTO 23005KT 5SM BR CLR 20/19 A2999 RMK AO2 T01950190
KOSC 171035Z AUTO 22003KT 5SM BR CLR 19/19 A2998 RMK AO2 T01920188
KOSC 171015Z AUTO 22005KT 5SM BR CLR 19/19 A2998 RMK AO2 T01920190
KOSC 170955Z AUTO 21005KT 4SM BR CLR 19/18 A2998 RMK AO2 T01870184
KOSC 170935Z AUTO 20003KT 5SM BR CLR 18/18 A2998 RMK AO2 T01800177
KOSC 170915Z AUTO 00000KT 7SM CLR 18/18 A2998 RMK AO2 T01840179
KOSC 170855Z AUTO 00000KT 7SM CLR 19/18 A2998 RMK AO2 T01850181
KOSC 170835Z AUTO 23004KT 7SM CLR 18/17 A2999 RMK AO2 T01780173
KOSC 170815Z AUTO 20003KT 10SM CLR 19/18 A2998 RMK AO2 T01890184
KOSC 170755Z AUTO 00000KT 7SM CLR 19/18 A2998 RMK AO2 T01850180
KOSC 170735Z AUTO 00000KT 5SM BR CLR 18/18 A2998 RMK AO2 T01790176
KOSC 170715Z AUTO 00000KT 7SM CLR 18/18 A2998 RMK AO2 T01830178
KOSC 170655Z AUTO 20004KT 7SM CLR 19/18 A2998 RMK AO2 T01870183
KOSC 170635Z AUTO 20003KT 7SM CLR 19/18 A2998 RMK AO2 T01890183
KOSC 170615Z AUTO 00000KT 10SM CLR 19/18 A2997 RMK AO2 T01880183
KOSC 170555Z AUTO 00000KT 10SM CLR 18/17 A2998 RMK AO2 T01800174 10240 20180
KOSC 170535Z AUTO 00000KT 10SM CLR 18/18 A2998 RMK AO2 T01830176
KOSC 170515Z AUTO 00000KT 10SM CLR 19/18 A2997 RMK AO2 T01900184
KOSC 170455Z AUTO 00000KT 10SM CLR 19/18 A2998 RMK AO2 T01850180
KOSC 170435Z AUTO 22003KT 10SM CLR 19/18 A2999 RMK AO2 T01880182
KOSC 170415Z AUTO 00000KT 10SM CLR 19/19 A2999 RMK AO2 T01940187
KOSC 170355Z AUTO 22003KT 10SM CLR 19/18 A3000 RMK AO2 T01920181
KOSC 170335Z AUTO 00000KT 10SM CLR 21/19 A3000 RMK AO2 T02060191